• Join FlightAware (Why Join?)
  • Login
  • US Flag 
01:14PM EST


 

Airport Tracker/Info


-or-


 

Live Flight TrackerFlight Track Log ✈ DAL6038 ✈ 21-Aug-2014 ✈ KCVG - KPIT

Flight Track Log - Related Links

Times and Time Zones

All times are in EDT time to prevent confusion due to time zone crossing. See the DAL6038 flight status page for this flight to view local times or setup timezone preferences in your user account.

Time Position Orientation Groundspeed Altitude Reporting Facility
EDT Latitude Longitude Course Direction KTS MPH feet Rate Location/Type
07:26PM 39.0333 -84.6500 123° Southeast 186 214 1,400  Level Cincinnati TRACON
07:27PM 39.0000 -84.5833 127° Southeast 223 257 3,100 1,380 Climbing Cincinnati TRACON
07:28PM 38.9833 -84.5000 104° East 267 307 4,400 1,560 Climbing Cincinnati TRACON
07:28PM 38.9675 -84.4525 113° Southeast 329 379 5,300 1,620 Climbing Indianapolis Center
07:29PM 38.9475 -84.3586 105° East 304 350 6,900 1,680 Climbing Indianapolis Center
07:30PM 38.9228 -84.2517 107° East 307 353 8,800 1,740 Climbing Indianapolis Center
07:31PM 38.9150 -84.1403 95° East 317 365 10,500 1,320 Climbing Indianapolis Center
07:32PM 38.9422 -84.0269 73° East 330 380 11,600 1,140 Climbing Indianapolis Center
07:34PM 38.9750 -83.8822 74° East 348 400 12,900 1,320 Climbing Indianapolis Center
07:35PM 39.0042 -83.7547 74° East 363 418 14,400 1,380 Climbing Indianapolis Center
07:36PM 39.0325 -83.6294 74° East 366 421 15,800 1,140 Climbing Indianapolis Center
07:37PM 39.0603 -83.5042 74° East 366 421 16,800 960 Climbing Indianapolis Center
07:38PM 39.0894 -83.3753 74° East 372 428 17,800 960 Climbing Indianapolis Center
07:39PM 39.1189 -83.2444 74° East 376 433 18,800 1,020 Climbing Indianapolis Center
07:40PM 39.1497 -83.1050 74° East 384 442 20,000 1,020 Climbing Indianapolis Center
07:41PM 39.1844 -82.9506 74° East 389 448 21,000 480 Climbing Indianapolis Center
07:42PM 39.2147 -82.8081 75° East 405 466 21,000  Level Indianapolis Center
07:43PM 39.2475 -82.6600 74° East 423 487 21,000  Level Indianapolis Center
07:45PM 39.3125 -82.3578 74° East 436 502 21,000  Level Cleveland Center
07:46PM 39.3486 -82.1878 75° East 442 509 21,000  Level Indianapolis Center
07:47PM 39.3819 -82.0286 75° East 451 519 21,000  Level Indianapolis Center
07:48PM 39.4164 -81.8700 74° East 453 521 21,000  Level Indianapolis Center
07:49PM 39.4492 -81.7089 75° East 457 526 21,000  Level Indianapolis Center
07:50PM 39.4825 -81.5472 75° East 458 527 21,000  Level Indianapolis Center
07:51PM 39.5161 -81.3839 75° East 463 533 21,000  Level Indianapolis Center
07:52PM 39.5983 -81.2247 56° Northeast 450 518 21,000 -240 Level Indianapolis Center
07:53PM 39.6931 -81.1306 37° Northeast 435 501 20,600 -1,260 Descending Indianapolis Center
07:54PM 39.7767 -81.0447 38° Northeast 430 495 18,500 -2,040 Descending Cleveland Center
07:55PM 39.8667 -80.9525 38° Northeast 418 481 16,500 -2,220 Descending Cleveland Center
07:56PM 39.9506 -80.8639 39° Northeast 395 455 14,000 -2,700 Descending Cleveland Center
07:57PM 40.0497 -80.7606 39° Northeast 382 440 11,000 -1,980 Descending Cleveland Center
07:58PM 40.1281 -80.6772 39° Northeast 367 422 10,000 -540 Descending Cleveland Center
07:59PM 40.2064 -80.5950 39° Northeast 365 420 10,000  Level Cleveland Center
08:00PM 40.2836 -80.5125 39° Northeast 361 415 10,000 -180 Level Cleveland Center
08:01PM 40.3219 -80.4108 64° Northeast 317 365 9,700 -1,080 Descending Cleveland Center
08:02PM 40.3586 -80.3072 65° Northeast 294 338 7,800 -1,680 Descending Cleveland Center
08:03PM 40.3839 -80.2142 70° East 287 330 6,300 -1,380 Descending Cleveland Center
08:04PM 40.3856 -80.1106 89° East 274 315 5,000 -1,140 Descending Cleveland Center
08:05PM 40.4047 -80.0242 74° East 259 298 4,000 -900 Descending Cleveland Center
08:06PM 40.4756 -80.0339 354° North 236 272 3,200 -720 Descending Cleveland Center
08:07PM 40.4825 -80.1053 277° West 201 231 2,600 -660 Descending Cleveland Center
08:08PM 40.4842 -80.1550 273° West 159 183 1,900 -720 Descending Cleveland Center
08:10PM 40.4850 -80.2053 271° West 146 168 1,200 -720 Descending Cleveland Center